Time;durP1;ratioP1;P1;durP2;ratioP2;P2;SDS_P1;SDS_P2;PMS_P1;PMS_P2;Temp;Humidity;BMP_temperature;BMP_pressure;BME280_temperature;BME280_humidity;BME280_pressure;Samples;Min_cycle;Max_cycle;Signal;HPM_P1;HPM_P2
2023/01/19 05:00:34;;;;;;;20.20;14.80;;;1.30;99.90;;;;;;5765800;23;20453;-79
2023/01/19 05:03:01;;;;;;;17.83;14.90;;;1.30;99.90;;;;;;4871307;29;20045;-79
2023/01/19 05:05:31;;;;;;;21.77;14.68;;;1.40;99.90;;;;;;4879351;29;20057;-79
2023/01/19 05:07:59;;;;;;;23.45;16.67;;;1.60;99.90;;;;;;4848871;29;20080;-79
2023/01/19 05:10:27;;;;;;;19.52;15.23;;;1.50;99.90;;;;;;4869571;29;20128;-79
2023/01/19 05:12:54;;;;;;;21.75;15.60;;;1.60;99.90;;;;;;4876451;29;20037;-79
2023/01/19 05:15:21;;;;;;;21.85;15.63;;;1.50;99.90;;;;;;4872779;29;20497;-79
2023/01/19 05:17:48;;;;;;;22.83;15.75;;;1.50;99.90;;;;;;4887701;29;20045;-78
2023/01/19 05:20:16;;;;;;;22.17;15.27;;;1.50;99.90;;;;;;4887123;29;20124;-77
2023/01/19 05:22:48;;;;;;;23.10;16.83;;;1.60;99.90;;;;;;4894794;29;20055;-77
2023/01/19 05:25:16;;;;;;;24.02;16.25;;;1.60;99.90;;;;;;4840609;29;20122;-81
2023/01/19 05:27:45;;;;;;;21.27;15.95;;;3.50;99.90;;;;;;4857653;29;20045;-78
2023/01/19 05:30:12;;;;;;;20.45;14.85;;;1.60;99.90;;;;;;4874373;29;20532;-78
2023/01/19 05:32:43;;;;;;;21.27;15.02;;;2.50;99.90;;;;;;4878690;29;20056;-76
2023/01/19 05:35:12;;;;;;;21.05;15.65;;;1.60;99.90;;;;;;4876467;29;20056;-81
2023/01/19 05:37:39;;;;;;;23.83;16.15;;;1.40;99.90;;;;;;4876186;29;20913;-79
2023/01/19 05:40:07;;;;;;;19.35;15.15;;;1.50;99.90;;;;;;4874607;29;20041;-78
2023/01/19 05:42:35;;;;;;;23.23;16.50;;;1.30;99.90;;;;;;4891057;29;20450;-78
2023/01/19 05:45:04;;;;;;;22.92;16.25;;;1.20;99.90;;;;;;4860991;29;20067;-78
2023/01/19 05:47:31;;;;;;;18.75;14.65;;;1.20;99.90;;;;;;4847114;29;20456;-79
2023/01/19 05:49:57;;;;;;;19.50;14.07;;;1.30;99.90;;;;;;4870884;29;20589;-79
2023/01/19 05:52:26;;;;;;;19.80;14.82;;;3.20;99.90;;;;;;4866053;29;20043;-78
2023/01/19 05:54:54;;;;;;;22.85;14.45;;;1.10;99.90;;;;;;4873828;29;20513;-78
2023/01/19 05:57:21;;;;;;;20.80;14.68;;;1.10;99.90;;;;;;4871249;29;20459;-79
2023/01/19 05:59:48;;;;;;;19.45;14.23;;;1.40;99.90;;;;;;4840852;29;20535;-79
2023/01/19 06:02:15;;;;;;;20.10;14.55;;;3.00;99.90;;;;;;4875286;29;20454;-79
2023/01/19 06:04:42;;;;;;;20.85;14.52;;;1.20;99.90;;;;;;4837508;29;20041;-79
2023/01/19 06:07:09;;;;;;;20.95;15.43;;;1.30;99.90;;;;;;4871360;29;20038;-79
2023/01/19 06:09:37;;;;;;;21.25;15.35;;;0.90;99.90;;;;;;4878475;29;20045;-79
2023/01/19 06:12:04;;;;;;;20.52;15.63;;;2.20;99.90;;;;;;4866175;29;20067;-76
2023/01/19 06:14:31;;;;;;;19.42;14.00;;;1.40;99.90;;;;;;4877199;29;20167;-79
2023/01/19 06:16:59;;;;;;;20.52;13.90;;;1.30;99.90;;;;;;4884898;29;20062;-78
2023/01/19 06:19:26;;;;;;;17.90;13.43;;;3.30;99.90;;;;;;4867977;29;20072;-78
2023/01/19 06:21:52;;;;;;;21.63;15.45;;;1.40;99.90;;;;;;4884946;29;20056;-79
2023/01/19 06:24:19;;;;;;;24.73;16.50;;;1.40;99.90;;;;;;4894102;29;20476;-79
2023/01/19 06:26:46;;;;;;;21.27;15.90;;;1.50;99.90;;;;;;4893818;29;20048;-79
2023/01/19 06:29:14;;;;;;;23.58;16.13;;;1.40;99.90;;;;;;4861677;29;20226;-79
2023/01/19 06:31:44;;;;;;;21.35;14.80;;;-1.20;99.90;;;;;;4882794;29;20095;-78
2023/01/19 06:34:11;;;;;;;29.30;20.98;;;1.30;99.90;;;;;;4874842;29;20057;-78
2023/01/19 06:36:41;;;;;;;19.70;14.93;;;3.70;99.90;;;;;;4873859;29;20466;-79
2023/01/19 06:39:08;;;;;;;20.75;14.65;;;1.50;99.90;;;;;;4858246;29;20057;-79
2023/01/19 06:41:35;;;;;;;20.13;14.35;;;1.70;99.90;;;;;;4851187;29;20048;-79
2023/01/19 06:44:02;;;;;;;17.23;13.60;;;2.60;99.90;;;;;;4861318;29;20120;-79
2023/01/19 06:46:30;;;;;;;18.50;13.63;;;1.50;99.90;;;;;;4893094;29;20417;-78
2023/01/19 06:48:56;;;;;;;20.20;14.07;;;1.70;99.90;;;;;;4857591;29;20066;-78
2023/01/19 06:51:24;;;;;;;22.08;14.68;;;2.60;99.90;;;;;;4853151;29;20069;-77
2023/01/19 06:53:51;;;;;;;18.38;13.93;;;2.50;99.90;;;;;;4838472;29;20066;-79
2023/01/19 06:56:18;;;;;;;29.83;24.80;;;1.60;99.90;;;;;;4839900;29;20057;-78
2023/01/19 06:58:47;;;;;;;19.70;15.35;;;3.70;99.90;;;;;;4857109;29;20256;-78
2023/01/19 07:01:15;;;;;;;20.98;14.10;;;1.70;99.90;;;;;;4850757;29;20168;-78
2023/01/19 07:03:43;;;;;;;19.35;14.15;;;1.70;99.90;;;;;;4837918;29;20098;-78
2023/01/19 07:06:12;;;;;;;21.25;14.13;;;1.70;99.90;;;;;;4838004;29;20141;-78
2023/01/19 07:08:40;;;;;;;18.08;14.10;;;1.50;99.90;;;;;;4838344;29;20064;-78
2023/01/19 07:11:09;;;;;;;17.33;13.20;;;1.60;99.90;;;;;;4842271;29;20077;-78
2023/01/19 07:13:55;;;;;;;19.55;13.07;;;1.70;99.90;;;;;;4848213;29;20060;-78
2023/01/19 07:16:22;;;;;;;16.65;11.93;;;1.80;99.90;;;;;;4853227;29;20144;-78
2023/01/19 07:18:50;;;;;;;21.02;12.77;;;1.70;99.90;;;;;;4838319;29;20080;-79
2023/01/19 07:21:16;;;;;;;17.45;13.25;;;1.60;99.90;;;;;;4863292;29;20052;-78
2023/01/19 07:23:46;;;;;;;21.75;14.35;;;1.80;99.90;;;;;;4856587;29;20148;-78
2023/01/19 07:26:15;;;;;;;18.35;13.35;;;1.50;99.90;;;;;;4841298;29;20049;-78
2023/01/19 07:28:42;;;;;;;18.95;13.55;;;1.70;99.90;;;;;;4844225;29;20058;-78
2023/01/19 07:31:09;;;;;;;21.27;13.05;;;1.80;99.90;;;;;;4842321;29;20065;-78
2023/01/19 07:33:36;;;;;;;18.52;13.63;;;1.70;99.90;;;;;;4871717;29;20053;-78
2023/01/19 07:36:07;;;;;;;19.45;14.98;;;2.00;99.90;;;;;;4801486;29;20082;-79
2023/01/19 07:38:34;;;;;;;19.27;14.10;;;1.90;99.90;;;;;;4801498;29;20066;-78
2023/01/19 07:41:03;;;;;;;15.85;12.85;;;1.90;99.90;;;;;;4822515;29;20101;-78
2023/01/19 07:43:31;;;;;;;18.30;13.60;;;1.80;99.90;;;;;;4822662;29;20061;-78
2023/01/19 07:46:00;;;;;;;26.75;16.63;;;4.30;99.90;;;;;;4838162;29;20389;-78
2023/01/19 07:48:27;;;;;;;22.77;14.63;;;1.80;99.90;;;;;;4837941;29;20041;-78
2023/01/19 07:51:04;;;;;;;20.23;14.93;;;1.80;99.90;;;;;;4820410;29;20083;-78
2023/01/19 07:53:31;;;;;;;20.02;16.40;;;1.80;99.90;;;;;;4819986;29;20053;-78
2023/01/19 07:55:59;;;;;;;22.95;17.00;;;3.80;99.90;;;;;;4855093;29;20126;-78
2023/01/19 07:58:26;;;;;;;23.35;14.20;;;4.00;99.90;;;;;;4856427;29;20541;-78
2023/01/19 08:00:53;;;;;;;18.73;13.40;;;2.10;99.90;;;;;;4857591;29;20069;-79
2023/01/19 08:03:20;;;;;;;40.45;14.30;;;2.10;99.90;;;;;;4874632;29;20044;-78
2023/01/19 08:05:51;;;;;;;20.05;13.70;;;2.00;99.90;;;;;;4861369;29;20045;-78
2023/01/19 08:08:19;;;;;;;18.88;13.60;;;1.80;99.90;;;;;;4877517;29;20427;-78
2023/01/19 08:10:50;;;;;;;19.65;13.05;;;1.90;99.90;;;;;;4870696;29;20040;-78
2023/01/19 08:13:17;;;;;;;17.60;12.45;;;1.80;99.90;;;;;;4889312;29;20537;-78
2023/01/19 08:15:47;;;;;;;18.48;13.10;;;2.00;99.90;;;;;;4856112;29;20407;-78
2023/01/19 08:18:15;;;;;;;18.10;12.95;;;2.10;99.90;;;;;;4825299;29;20060;-78
2023/01/19 08:20:42;;;;;;;19.35;13.43;;;2.20;99.90;;;;;;4825488;29;20061;-78
2023/01/19 08:23:10;;;;;;;15.77;12.88;;;2.30;99.90;;;;;;4858962;29;20214;-78
2023/01/19 08:25:44;;;;;;;19.65;13.35;;;2.30;99.90;;;;;;4843757;29;20718;-78
2023/01/19 08:28:15;;;;;;;18.27;13.43;;;2.30;99.90;;;;;;4859826;29;20048;-78
2023/01/19 08:30:43;;;;;;;17.05;11.85;;;2.30;99.90;;;;;;4843270;29;20106;-78
2023/01/19 08:33:12;;;;;;;19.10;12.77;;;4.60;99.90;;;;;;4825163;29;20049;-78
2023/01/19 08:35:40;;;;;;;18.77;12.80;;;2.20;99.90;;;;;;4825012;29;20140;-77
2023/01/19 08:38:09;;;;;;;17.80;11.90;;;2.20;99.90;;;;;;4855742;29;20053;-77
2023/01/19 08:40:39;;;;;;;16.65;11.85;;;2.50;99.90;;;;;;4840224;29;20084;-75
2023/01/19 08:43:09;;;;;;;16.20;11.87;;;2.20;99.90;;;;;;4843284;29;20607;-75
2023/01/19 08:45:36;;;;;;;;;;;2.30;99.90;;;;;;4874926;29;20372;-75
2023/01/19 08:48:05;;;;;;;21.73;13.27;;;2.20;99.90;;;;;;4894241;29;19928;-75
2023/01/19 08:50:33;;;;;;;19.58;12.85;;;2.20;99.90;;;;;;4893961;29;20059;-75
2023/01/19 08:53:01;;;;;;;19.92;13.90;;;3.50;99.90;;;;;;4877676;29;20665;-74
2023/01/19 08:55:29;;;;;;;19.10;13.68;;;2.20;99.90;;;;;;4877935;29;20128;-75
2023/01/19 08:57:56;;;;;;;23.98;15.77;;;2.40;99.90;;;;;;4860570;29;20520;-75
2023/01/19 09:00:25;;;;;;;22.20;14.60;;;2.10;99.90;;;;;;4876108;29;20117;-75
2023/01/19 09:02:52;;;;;;;19.30;13.27;;;2.40;99.90;;;;;;4891287;29;20044;-75
2023/01/19 09:05:19;;;;;;;20.08;12.50;;;2.30;99.90;;;;;;4865356;29;20057;-75
2023/01/19 09:07:47;;;;;;;17.55;13.82;;;2.20;99.90;;;;;;4875256;29;20045;-75
2023/01/19 09:10:15;;;;;;;16.75;13.93;;;2.30;99.90;;;;;;4876392;29;20893;-75
2023/01/19 09:12:43;;;;;;;21.67;15.27;;;2.20;99.90;;;;;;4873272;29;20135;-75
2023/01/19 09:15:14;;;;;;;19.45;14.27;;;3.00;99.90;;;;;;4874962;29;20045;-75
2023/01/19 09:17:41;;;;;;;18.60;14.80;;;2.40;99.90;;;;;;4874395;29;20053;-75
2023/01/19 09:20:09;;;;;;;17.25;12.80;;;3.20;99.90;;;;;;4876235;29;20072;-75
2023/01/19 09:22:43;;;;;;;16.88;13.73;;;2.30;99.90;;;;;;4886348;29;20114;-75
2023/01/19 09:25:10;;;;;;;17.55;13.20;;;2.40;99.90;;;;;;4874782;29;20040;-75
2023/01/19 09:27:36;;;;;;;21.65;13.65;;;2.60;99.90;;;;;;4874647;29;20044;-75
2023/01/19 09:30:04;;;;;;;14.00;11.75;;;2.50;99.90;;;;;;4874217;29;20057;-74
2023/01/19 09:32:31;;;;;;;19.10;12.77;;;2.50;99.90;;;;;;4887548;29;20045;-76
2023/01/19 09:34:58;;;;;;;17.90;12.60;;;2.50;99.90;;;;;;4883052;29;20518;-75
2023/01/19 09:37:25;;;;;;;17.38;12.30;;;2.50;99.90;;;;;;4874760;29;20730;-75
2023/01/19 09:39:52;;;;;;;15.95;11.75;;;3.80;99.90;;;;;;4875460;29;20418;-75
2023/01/19 09:42:40;;;;;;;19.20;13.98;;;2.50;99.90;;;;;;4870713;29;20040;-75
2023/01/19 09:45:19;;;;;;;15.68;12.10;;;2.60;99.90;;;;;;4893170;29;20049;-75
2023/01/19 09:47:47;;;;;;;15.60;12.23;;;2.60;99.90;;;;;;4865078;29;20128;-75
2023/01/19 09:50:33;;;;;;;17.55;12.45;;;2.60;99.90;;;;;;4870381;29;20057;-75
2023/01/19 09:53:12;;;;;;;18.33;12.70;;;2.50;99.90;;;;;;4889972;29;20044;-75
2023/01/19 09:55:41;;;;;;;18.48;13.07;;;2.70;99.90;;;;;;4878121;29;20128;-75
2023/01/19 09:58:14;;;;;;;18.88;13.35;;;2.60;99.90;;;;;;4893434;29;20080;-75
2023/01/19 10:00:48;;;;;;;21.23;12.82;;;2.60;99.90;;;;;;4892558;29;20458;-75
2023/01/19 10:03:16;;;;;;;17.48;13.45;;;3.30;99.90;;;;;;4858586;29;20053;-75
2023/01/19 10:05:51;;;;;;;19.75;15.10;;;2.70;99.90;;;;;;4874131;29;20048;-75
2023/01/19 10:08:40;;;;;;;19.20;13.18;;;2.60;99.90;;;;;;4859203;29;20518;-75
2023/01/19 10:11:38;;;;;;;18.20;13.23;;;2.70;99.90;;;;;;4858520;29;20045;-75
2023/01/19 10:14:35;;;;;;;20.08;12.90;;;2.60;99.90;;;;;;4865052;29;20064;-75
2023/01/19 10:17:07;;;;;;;16.40;12.55;;;2.50;99.90;;;;;;4874044;29;20414;-75
2023/01/19 10:19:39;;;;;;;18.77;12.52;;;2.60;99.90;;;;;;4858399;29;20440;-75
2023/01/19 10:22:21;;;;;;;19.08;13.48;;;2.60;99.90;;;;;;4884300;29;20056;-75
2023/01/19 10:25:04;;;;;;;15.32;11.75;;;2.60;99.90;;;;;;4892195;29;20051;-75
2023/01/19 10:27:33;;;;;;;20.33;12.80;;;2.80;99.90;;;;;;4892192;29;20469;-75
2023/01/19 10:30:01;;;;;;;18.98;14.82;;;2.80;99.90;;;;;;4892336;29;20506;-75
2023/01/19 10:32:34;;;;;;;20.92;14.07;;;2.90;99.90;;;;;;4880429;29;20281;-77
2023/01/19 10:35:20;;;;;;;15.57;12.27;;;2.80;99.90;;;;;;4872968;29;20399;-75
2023/01/19 10:37:47;;;;;;;16.15;12.70;;;2.80;99.90;;;;;;4858422;29;20120;-75
2023/01/19 10:40:35;;;;;;;15.02;11.75;;;3.10;99.90;;;;;;4872258;29;20109;-75
2023/01/19 10:43:35;;;;;;;15.50;12.10;;;3.00;99.90;;;;;;4873590;29;20517;-75
2023/01/19 10:46:17;;;;;;;15.55;11.25;;;3.20;99.90;;;;;;4891156;29;20576;-75
2023/01/19 10:48:47;;;;;;;14.07;11.00;;;3.10;99.90;;;;;;4875079;29;20059;-75
2023/01/19 10:51:15;;;;;;;14.32;10.43;;;3.40;99.90;;;;;;4888643;29;20063;-75
2023/01/19 10:53:54;;;;;;;21.73;13.30;;;3.90;99.90;;;;;;4891182;29;20127;-75
2023/01/19 10:56:24;;;;;;;13.68;10.80;;;3.50;99.80;;;;;;4891443;29;20051;-75
2023/01/19 10:58:52;;;;;;;14.40;10.82;;;3.40;99.60;;;;;;4890371;29;20041;-75
2023/01/19 11:01:24;;;;;;;15.68;10.98;;;5.90;99.90;;;;;;4890840;29;20486;-75
2023/01/19 11:03:54;;;;;;;17.55;11.88;;;3.60;99.60;;;;;;4890046;29;20226;-75
2023/01/19 11:06:24;;;;;;;13.55;10.13;;;3.70;99.40;;;;;;4873037;29;20687;-75
2023/01/19 11:08:52;;;;;;;13.02;11.15;;;3.60;99.20;;;;;;4873544;29;20409;-75
2023/01/19 11:11:20;;;;;;;14.48;11.35;;;3.60;99.50;;;;;;4859076;29;20045;-75
2023/01/19 11:14:22;;;;;;;16.95;11.32;;;5.30;99.80;;;;;;4882012;29;20049;-75
2023/01/19 11:16:54;;;;;;;16.25;12.32;;;3.70;99.20;;;;;;4874246;29;20165;-75
2023/01/19 11:19:30;;;;;;;14.35;10.90;;;3.70;99.10;;;;;;4857714;29;20615;-74
2023/01/19 11:22:23;;;;;;;14.30;10.82;;;3.90;98.90;;;;;;4864551;29;20077;-74
2023/01/19 11:24:51;;;;;;;13.13;10.82;;;4.10;99.00;;;;;;4876881;29;20045;-74
2023/01/19 11:27:21;;;;;;;14.38;11.60;;;3.90;98.60;;;;;;4872543;29;20049;-74
2023/01/19 11:30:09;;;;;;;15.07;11.35;;;4.20;98.60;;;;;;4857469;29;20466;-74
2023/01/19 11:32:36;;;;;;;15.57;10.75;;;4.20;98.20;;;;;;4884846;29;20056;-73
2023/01/19 11:35:29;;;;;;;16.02;11.57;;;4.10;98.00;;;;;;4865511;29;20506;-74
2023/01/19 11:38:11;;;;;;;13.45;9.90;;;4.10;98.40;;;;;;4844909;29;20874;-74
2023/01/19 11:40:39;;;;;;;15.73;11.18;;;4.00;98.30;;;;;;4858514;29;20050;-74
2023/01/19 11:43:10;;;;;;;13.55;10.68;;;4.00;98.60;;;;;;4889498;29;20044;-75
2023/01/19 11:45:38;;;;;;;15.90;12.82;;;3.90;98.40;;;;;;4895467;29;20517;-75
2023/01/19 11:48:06;;;;;;;13.88;10.23;;;4.70;98.70;;;;;;4880026;29;20062;-76
2023/01/19 11:50:51;;;;;;;16.08;11.68;;;3.90;98.50;;;;;;4864031;29;20152;-75
2023/01/19 11:53:24;;;;;;;17.02;12.40;;;3.90;98.60;;;;;;4862184;29;20518;-76
2023/01/19 11:55:58;;;;;;;16.92;10.95;;;3.90;98.80;;;;;;4861527;29;20055;-75
2023/01/19 11:58:25;;;;;;;20.65;13.23;;;3.90;98.90;;;;;;4876376;29;20049;-75
2023/01/19 12:00:56;;;;;;;17.60;12.70;;;4.00;98.60;;;;;;4877800;29;20067;-75
2023/01/19 12:03:30;;;;;;;19.48;12.30;;;3.90;98.60;;;;;;4877331;29;20577;-75
2023/01/19 12:06:02;;;;;;;16.45;12.30;;;4.00;98.50;;;;;;4861105;29;20056;-75
2023/01/19 12:08:40;;;;;;;17.00;11.68;;;3.90;98.70;;;;;;4876604;29;20093;-75
2023/01/19 12:11:11;;;;;;;19.00;12.40;;;3.80;98.90;;;;;;4877957;29;20056;-75
2023/01/19 12:13:40;;;;;;;17.27;12.32;;;3.90;98.90;;;;;;4861114;29;20434;-75
2023/01/19 12:16:19;;;;;;;17.45;11.40;;;3.80;98.90;;;;;;4877843;29;20076;-74
2023/01/19 12:19:18;;;;;;;16.85;12.20;;;3.80;98.80;;;;;;4876610;29;20053;-75
2023/01/19 12:21:48;;;;;;;15.40;10.95;;;3.80;98.90;;;;;;4871978;29;20067;-76
2023/01/19 12:24:44;;;;;;;;;;;3.80;99.10;;;;;;4895502;29;20066;-74
2023/01/19 12:27:40;;;;;;;14.57;10.95;;;3.60;99.10;;;;;;4883120;29;20435;-74
2023/01/19 12:30:19;;;;;;;13.23;10.57;;;3.60;99.00;;;;;;4878977;29;20217;-74
2023/01/19 12:32:47;;;;;;;16.02;11.48;;;3.80;99.10;;;;;;4894475;29;20048;-75
2023/01/19 12:35:51;;;;;;;15.07;11.10;;;4.40;99.30;;;;;;4866746;29;20061;-76
2023/01/19 12:38:35;;;;;;;15.93;10.73;;;3.90;99.10;;;;;;4857902;29;20514;-70
2023/01/19 12:41:22;;;;;;;12.93;10.10;;;4.10;98.90;;;;;;4860662;29;20041;-70
2023/01/19 12:44:11;;;;;;;15.52;10.48;;;4.20;98.70;;;;;;4868620;29;20048;-70
2023/01/19 12:46:42;;;;;;;17.17;11.25;;;4.20;98.60;;;;;;4884744;29;20064;-73
2023/01/19 12:49:28;;;;;;;15.32;11.38;;;5.80;98.60;;;;;;4894034;29;20610;-73
2023/01/19 12:52:18;;;;;;;15.55;9.90;;;4.50;98.00;;;;;;4893713;29;20524;-73
2023/01/19 12:54:52;;;;;;;;;;;4.30;97.90;;;;;;4890475;29;20057;-73
2023/01/19 12:58:07;;;;;;;16.98;10.75;;;4.30;98.00;;;;;;4891298;29;19924;-74
2023/01/19 13:00:39;;;;;;;12.60;9.30;;;4.60;98.30;;;;;;4870286;29;20080;-80
2023/01/19 13:03:18;;;;;;;13.68;10.20;;;4.80;98.00;;;;;;4894269;29;20123;-81
2023/01/19 13:05:52;;;;;;;17.15;11.30;;;4.90;97.50;;;;;;4879636;29;20045;-81
2023/01/19 13:08:23;;;;;;;13.20;10.30;;;4.80;97.80;;;;;;4860703;29;20045;-78
2023/01/19 13:10:59;;;;;;;17.77;10.85;;;5.10;97.40;;;;;;4875270;29;20049;-80
2023/01/19 13:13:35;;;;;;;14.30;10.98;;;5.50;96.80;;;;;;4877429;29;20055;-79
2023/01/19 13:16:17;;;;;;;13.77;10.10;;;5.30;96.70;;;;;;4896245;29;20045;-80
2023/01/19 13:19:00;;;;;;;12.35;9.15;;;5.50;96.60;;;;;;4893847;29;20147;-82
2023/01/19 13:21:30;;;;;;;15.60;9.98;;;5.40;96.60;;;;;;4801899;29;20125;-79
2023/01/19 13:23:58;;;;;;;;;;;5.60;96.50;;;;;;4785518;29;20061;-79
2023/01/19 13:26:33;;;;;;;12.27;8.40;;;5.30;96.50;;;;;;4799967;29;19972;-79
2023/01/19 13:29:09;;;;;;;12.90;8.93;;;5.40;96.20;;;;;;4800130;29;20078;-78
2023/01/19 13:31:38;;;;;;;11.50;8.68;;;5.60;96.10;;;;;;4785111;29;20175;-79
2023/01/19 13:34:16;;;;;;;10.13;7.50;;;5.60;96.10;;;;;;4785228;29;20078;-78
2023/01/19 13:36:45;;;;;;;10.02;8.48;;;5.60;95.80;;;;;;4799839;29;20058;-79
2023/01/19 13:39:14;;;;;;;13.32;8.80;;;5.80;95.50;;;;;;4794233;29;20115;-78
2023/01/19 13:41:44;;;;;;;13.27;9.43;;;6.50;95.30;;;;;;4874434;29;20064;-79
2023/01/19 13:44:22;;;;;;;12.10;9.07;;;7.60;95.40;;;;;;4874740;29;20047;-79
2023/01/19 13:46:52;;;;;;;14.07;8.65;;;7.60;94.20;;;;;;4843077;29;20092;-79
2023/01/19 13:49:28;;;;;;;11.25;7.10;;;9.00;91.40;;;;;;4842678;29;20055;-79
2023/01/19 13:52:18;;;;;;;13.75;8.90;;;10.00;89.40;;;;;;4879849;29;20445;-76
2023/01/19 13:54:54;;;;;;;12.07;8.38;;;11.00;84.30;;;;;;4894476;29;20055;-77
2023/01/19 13:57:25;;;;;;;8.75;7.28;;;11.40;79.50;;;;;;4894573;29;20445;-79
2023/01/19 13:59:59;;;;;;;;;;;11.70;79.80;;;;;;4869496;29;20491;-77
2023/01/19 14:02:57;;;;;;;13.95;10.13;;;11.50;80.10;;;;;;4881519;29;19935;-78
2023/01/19 14:05:33;;;;;;;12.65;9.63;;;12.30;78.40;;;;;;4858743;29;20053;-78
2023/01/19 14:08:12;;;;;;;7.68;6.07;;;12.50;75.20;;;;;;4874924;29;20156;-78
2023/01/19 14:10:46;;;;;;;7.97;6.78;;;12.90;72.90;;;;;;4876059;29;20045;-77
2023/01/19 14:13:18;;;;;;;7.28;5.95;;;12.90;72.50;;;;;;4885391;29;20052;-78
2023/01/19 14:15:46;;;;;;;9.73;6.65;;;13.10;67.10;;;;;;4859884;29;20089;-73
2023/01/19 14:18:16;;;;;;;6.93;5.32;;;14.20;68.50;;;;;;4859020;29;20061;-72
2023/01/19 14:20:56;;;;;;;8.35;6.63;;;11.40;69.10;;;;;;4875756;29;20055;-77
2023/01/19 14:23:35;;;;;;;7.38;6.20;;;10.40;71.90;;;;;;4861591;29;20089;-77
2023/01/19 14:26:02;;;;;;;6.23;4.67;;;10.20;72.50;;;;;;4876027;29;20052;-76
2023/01/19 14:28:34;;;;;;;6.55;5.38;;;10.00;71.30;;;;;;4876055;29;20063;-77
2023/01/19 14:31:15;;;;;;;8.02;5.88;;;10.00;72.80;;;;;;4874197;29;20041;-77
2023/01/19 14:33:44;;;;;;;7.85;6.25;;;10.10;72.80;;;;;;4891972;29;20398;-77
2023/01/19 14:36:26;;;;;;;7.95;5.20;;;10.10;72.00;;;;;;4893141;29;20135;-78
2023/01/19 14:38:57;;;;;;;7.63;5.60;;;10.20;73.30;;;;;;4892122;29;20127;-78
2023/01/19 14:41:33;;;;;;;8.00;5.97;;;9.90;74.50;;;;;;4893905;29;20844;-78
2023/01/19 14:44:02;;;;;;;7.75;6.85;;;9.50;75.60;;;;;;4893648;29;20044;-78
2023/01/19 14:46:28;;;;;;;7.95;6.35;;;9.30;76.20;;;;;;4892784;29;20044;-78
2023/01/19 14:49:01;;;;;;;7.63;6.18;;;8.90;75.50;;;;;;4892524;29;20052;-78
2023/01/19 14:51:28;;;;;;;7.28;5.00;;;8.60;76.50;;;;;;4891784;29;20508;-72
2023/01/19 14:53:57;;;;;;;6.07;5.28;;;8.90;77.50;;;;;;4859854;29;20048;-73
2023/01/19 14:56:30;;;;;;;8.88;5.18;;;8.30;78.60;;;;;;4855110;29;20070;-76
2023/01/19 14:59:01;;;;;;;8.52;6.50;;;8.30;78.30;;;;;;4841151;29;20079;-76
2023/01/19 15:01:29;;;;;;;7.90;5.63;;;7.80;78.70;;;;;;4873204;29;20076;-76
2023/01/19 15:03:57;;;;;;;7.85;5.70;;;7.50;80.60;;;;;;4891056;29;20136;-76
2023/01/19 15:06:27;;;;;;;;;;;7.30;79.80;;;;;;4858897;29;20430;-76
2023/01/19 15:08:54;;;;;;;9.40;6.30;;;7.20;80.80;;;;;;4857541;29;19970;-76
2023/01/19 15:11:25;;;;;;;7.63;5.40;;;7.00;81.40;;;;;;4872552;29;20056;-76
2023/01/19 15:13:54;;;;;;;10.27;5.60;;;6.80;81.80;;;;;;4858892;29;20586;-76
2023/01/19 15:16:22;;;;;;;7.88;5.47;;;6.60;82.20;;;;;;4878626;29;20049;-76
2023/01/19 15:18:50;;;;;;;6.78;5.45;;;6.30;83.90;;;;;;4859304;29;20061;-76
2023/01/19 15:21:19;;;;;;;6.68;4.82;;;6.30;84.00;;;;;;4870489;29;20053;-75
2023/01/19 15:23:48;;;;;;;7.90;5.68;;;6.20;84.60;;;;;;4879223;29;20410;-75
2023/01/19 15:26:20;;;;;;;8.80;6.03;;;6.10;84.70;;;;;;4877339;29;20069;-76
2023/01/19 15:28:48;;;;;;;10.35;6.47;;;6.00;85.40;;;;;;4877183;29;20052;-75
2023/01/19 15:31:20;;;;;;;7.57;5.63;;;5.80;85.20;;;;;;4868656;29;20053;-76
2023/01/19 15:33:47;;;;;;;7.82;5.60;;;5.80;86.80;;;;;;4893232;29;20063;-76
2023/01/19 15:36:16;;;;;;;7.68;5.18;;;5.70;86.60;;;;;;4856239;29;20610;-76
2023/01/19 15:38:44;;;;;;;8.63;6.55;;;5.70;87.00;;;;;;4852388;29;20049;-76
2023/01/19 15:41:23;;;;;;;7.22;5.75;;;5.70;87.50;;;;;;4852793;29;20524;-77
2023/01/19 15:43:50;;;;;;;9.75;6.25;;;5.60;87.20;;;;;;4877068;29;20040;-75
2023/01/19 15:46:19;;;;;;;12.00;6.70;;;5.60;88.80;;;;;;4859541;29;20900;-76
2023/01/19 15:48:49;;;;;;;7.30;4.68;;;5.50;87.80;;;;;;4859279;29;20062;-76
2023/01/19 15:51:19;;;;;;;7.75;5.80;;;5.50;87.90;;;;;;4881030;29;20621;-76
2023/01/19 15:53:46;;;;;;;7.57;5.63;;;5.40;88.80;;;;;;4886497;29;20052;-76
2023/01/19 15:56:20;;;;;;;11.15;7.30;;;5.30;88.80;;;;;;4879500;29;20060;-76
2023/01/19 15:58:47;;;;;;;7.93;5.85;;;5.30;89.70;;;;;;4892987;29;20044;-76
2023/01/19 16:01:18;;;;;;;11.25;5.85;;;5.00;88.90;;;;;;4893363;29;20052;-76
2023/01/19 16:03:45;;;;;;;9.32;6.15;;;5.00;90.30;;;;;;4877933;29;20052;-76
2023/01/19 16:06:15;;;;;;;8.65;5.60;;;4.90;90.30;;;;;;4860899;29;20051;-76
2023/01/19 16:08:42;;;;;;;9.20;5.88;;;5.00;90.30;;;;;;4860918;29;20506;-76
2023/01/19 16:11:12;;;;;;;9.48;6.25;;;6.70;91.00;;;;;;4860828;29;20053;-76
2023/01/19 16:13:39;;;;;;;9.57;6.78;;;6.40;91.40;;;;;;4868028;29;20137;-76
2023/01/19 16:16:11;;;;;;;9.85;5.70;;;4.90;90.70;;;;;;4860641;29;20071;-76
2023/01/19 16:18:39;;;;;;;11.70;5.70;;;4.80;90.50;;;;;;4876105;29;20052;-76
2023/01/19 16:21:06;;;;;;;9.43;5.13;;;4.80;90.80;;;;;;4877059;29;20104;-78
2023/01/19 16:23:36;;;;;;;6.72;4.95;;;4.90;90.90;;;;;;4876522;29;20048;-77
2023/01/19 16:26:09;;;;;;;6.50;4.30;;;6.60;91.40;;;;;;4860414;29;20147;-78
2023/01/19 16:28:36;;;;;;;8.07;5.43;;;4.80;90.90;;;;;;4846236;29;20049;-78
2023/01/19 16:31:04;;;;;;;7.80;5.20;;;4.90;91.20;;;;;;4860391;29;20051;-78
2023/01/19 16:33:31;;;;;;;8.07;7.00;;;4.80;91.20;;;;;;4891792;29;20052;-77
2023/01/19 16:35:58;;;;;;;7.80;5.15;;;4.60;91.60;;;;;;4876587;29;20140;-78
2023/01/19 16:38:25;;;;;;;8.38;5.97;;;4.70;91.80;;;;;;4875806;29;20057;-78
2023/01/19 16:40:53;;;;;;;8.65;5.65;;;5.50;92.00;;;;;;4859821;29;20077;-78
2023/01/19 16:43:20;;;;;;;10.80;6.18;;;4.60;92.00;;;;;;4873269;29;20183;-78
2023/01/19 16:45:58;;;;;;;12.38;6.03;;;4.60;92.10;;;;;;4863478;29;20049;-77
2023/01/19 16:48:25;;;;;;;9.48;6.07;;;4.60;92.10;;;;;;4890650;29;20071;-77
2023/01/19 16:51:01;;;;;;;9.88;7.07;;;4.50;92.20;;;;;;4857608;29;20049;-77
2023/01/19 16:53:29;;;;;;;8.60;6.70;;;4.50;92.50;;;;;;4858484;29;20052;-77
2023/01/19 16:55:56;;;;;;;8.90;6.97;;;4.60;92.70;;;;;;4875064;29;20041;-80
2023/01/19 16:58:23;;;;;;;9.45;6.70;;;5.50;93.20;;;;;;4874923;29;20060;-77
2023/01/19 17:00:50;;;;;;;11.77;7.13;;;4.40;93.00;;;;;;4875661;29;20474;-77
2023/01/19 17:03:18;;;;;;;11.75;7.50;;;6.10;93.60;;;;;;4869739;29;20063;-76
2023/01/19 17:05:49;;;;;;;14.25;9.95;;;4.30;93.30;;;;;;4877570;29;20518;-77
2023/01/19 17:08:20;;;;;;;14.25;9.60;;;4.20;93.40;;;;;;4876059;29;20142;-77
2023/01/19 17:10:47;;;;;;;15.30;10.73;;;6.10;94.10;;;;;;4859433;29;20065;-76
2023/01/19 17:13:15;;;;;;;15.00;10.73;;;4.90;93.90;;;;;;4879135;29;20063;-77
2023/01/19 17:15:42;;;;;;;15.98;10.55;;;5.40;94.20;;;;;;4868426;29;20072;-77
2023/01/19 17:18:09;;;;;;;18.23;11.82;;;5.90;94.70;;;;;;4859265;29;20124;-77
2023/01/19 17:20:36;;;;;;;17.88;11.07;;;4.20;94.40;;;;;;4874544;29;20053;-77
2023/01/19 17:23:03;;;;;;;17.30;11.15;;;4.20;94.50;;;;;;4872176;29;20073;-76
2023/01/19 17:25:36;;;;;;;17.35;12.05;;;4.20;94.70;;;;;;4869407;29;20056;-77
2023/01/19 17:28:03;;;;;;;19.73;11.68;;;4.10;95.00;;;;;;4856092;29;20045;-77
2023/01/19 17:30:30;;;;;;;16.08;10.15;;;4.00;95.10;;;;;;4877690;29;20501;-77
2023/01/19 17:32:57;;;;;;;12.57;10.10;;;4.10;95.10;;;;;;4885089;29;20049;-79
2023/01/19 17:35:28;;;;;;;19.25;9.63;;;3.40;95.00;;;;;;4863785;29;20598;-80
2023/01/19 17:38:07;;;;;;;11.77;8.60;;;4.30;95.40;;;;;;4871723;29;20053;-79
2023/01/19 17:40:59;;;;;;;11.93;8.70;;;5.40;95.80;;;;;;4858354;29;20053;-77
2023/01/19 17:43:26;;;;;;;13.35;9.25;;;6.40;96.40;;;;;;4875026;29;20140;-79
2023/01/19 17:45:53;;;;;;;10.20;8.35;;;5.20;96.00;;;;;;4862890;29;20041;-79
2023/01/19 17:48:20;;;;;;;10.85;9.70;;;4.20;96.00;;;;;;4876787;29;20430;-74
2023/01/19 17:50:47;;;;;;;17.90;14.60;;;4.10;95.70;;;;;;4881702;29;20049;-76
2023/01/19 17:53:20;;;;;;;18.73;12.20;;;4.10;95.90;;;;;;4868884;29;20040;-78
2023/01/19 17:55:47;;;;;;;35.75;26.17;;;3.80;95.70;;;;;;4867599;29;20086;-79
2023/01/19 17:58:27;;;;;;;16.10;10.77;;;4.20;95.80;;;;;;4851423;29;20044;-77
2023/01/19 18:01:12;;;;;;;26.83;18.77;;;4.00;95.90;;;;;;4858584;29;20037;-77
2023/01/19 18:03:41;;;;;;;107.38;60.63;;;5.10;96.50;;;;;;4882731;29;20132;-79
2023/01/19 18:06:09;;;;;;;146.13;84.85;;;4.10;96.20;;;;;;4874749;29;20678;-78